Whitefield, NH

12:12 AM EST on January 20, 2017 (GMT -0500)
Mount Washington Regional | | Change Station

Elev 1073 ft 44.37 °N, 71.54 °W | Updated 20 minutes ago

Overcast
Overcast
32 °F
Feels Like 28 °F
N
5
Wind Variable Wind from ENE

Today
High -- | Low -- °F
--% Chance of Precip.
Yesterday
High -- | Low -- °F
Precip. -- in
Pressure 30.04 in
Visibility 10.0 miles
Clouds Overcast 2500 ft
Windchill 28 °F
Dew Point 27 °F
Humidity 82%
Rainfall 0.02 in
Snow Depth Not available.
7:15 AM 4:39 PM
Waning Gibbous, 47% visible
METAR KHIE 200452Z AUTO 07004KT 10SM OVC025 00/M03 A3000 RMK AO2 PRESFR SLP173 T00001028 400221022
Pressure 30.04 in
Visibility 10.0 miles
Clouds Overcast 2500 ft
Windchill 28 °F
Dew Point 27 °F
Humidity 82%
Rainfall 0.02 in
Snow Depth Not available.
7:15 AM 4:39 PM
Waning Gibbous, 47% visible
METAR KHIE 200452Z AUTO 07004KT 10SM OVC025 00/M03 A3000 RMK AO2 PRESFR SLP173 T00001028 400221022

Get Your Daily Forecast Email!

Thanks for signing up!

Be on the lookout for a verification email in your inbox.

You'll start receiving the daily forecast at 8 AM.

×

10-Day Weather Forecast

Almanac

Astronomy

Jan. 20, 2017 Rise Set
Actual Time
Civil Twilight
Nautical Twilight
Astronomical Twilight
Moon
Length of Visible Light
Length of Day
Tomorrow will be .
, % of the Moon is Illuminated

Today's Extremes

State Highs State Lows

Community

WunderPhotos

Upload Photos

1,962,540 photos uploaded!

WunderBlog® & News

Nearby

Air Quality

  Air Quality AQ Index Pollutant
Not available.

Snow Depth

Station Depth Elevation

Earthquake Activity

City Distance Mag. Time & Date
Minimum magnitude displayed is 2.5.

Coastal Water Temperatures

Place Temperature

Stations

Nearby Weather Stations

Station Location Temp. Windchill Dew Point Humidity Wind Precip. Elev Updated Type
                   

Watches & Warnings

There are currently no watches in effect.